createdAt,value
2022-10-05T00:01:26.481Z,14.03
2022-10-05T00:04:00.537Z,12.47
2022-10-05T00:06:30.352Z,14.87
2022-10-05T00:08:58.680Z,14.47
2022-10-05T00:11:26.646Z,12.17
2022-10-05T00:13:54.497Z,13.37
2022-10-05T00:16:23.816Z,15.80
2022-10-05T00:18:54.255Z,14.43
2022-10-05T00:21:23.932Z,11.73
2022-10-05T00:23:52.656Z,13.50
2022-10-05T00:26:23.290Z,16.00
2022-10-05T00:28:51.801Z,13.93
2022-10-05T00:31:25.971Z,15.37
2022-10-05T00:33:57.717Z,18.03
2022-10-05T00:36:27.353Z,13.13
2022-10-05T00:38:56.267Z,11.73
2022-10-05T00:41:31.881Z,13.70
2022-10-05T00:44:26.076Z,14.57
2022-10-05T00:47:03.539Z,13.83
2022-10-05T00:49:50.399Z,14.87
2022-10-05T00:52:27.914Z,15.27
2022-10-05T00:55:08.765Z,13.23
2022-10-05T00:57:47.475Z,10.70
2022-10-05T01:00:21.195Z,13.20
2022-10-05T01:02:59.298Z,12.87
2022-10-05T01:05:46.495Z,14.70
2022-10-05T01:08:32.373Z,13.33
2022-10-05T01:11:09.317Z,14.53
2022-10-05T01:13:52.227Z,17.07
2022-10-05T01:16:31.261Z,14.37
2022-10-05T01:19:08.560Z,14.20
2022-10-05T01:21:42.317Z,16.13
2022-10-05T01:24:49.005Z,14.30
2022-10-05T01:27:35.456Z,13.37
2022-10-05T01:30:07.754Z,16.90
2022-10-05T01:32:40.937Z,15.33
2022-10-05T01:35:22.457Z,13.43
2022-10-05T01:37:59.831Z,18.17
2022-10-05T01:40:35.855Z,14.93
2022-10-05T01:43:12.688Z,15.13
2022-10-05T01:45:53.974Z,14.87
2022-10-05T01:48:33.260Z,15.13
2022-10-05T01:51:12.330Z,16.63
2022-10-05T01:53:50.626Z,15.97
2022-10-05T01:56:25.974Z,14.83
2022-10-05T01:59:01.819Z,12.60
2022-10-05T02:01:37.133Z,12.00
2022-10-05T02:04:10.391Z,14.03
2022-10-05T02:06:42.745Z,14.47
2022-10-05T02:09:19.276Z,15.43
2022-10-05T02:11:50.822Z,17.20
2022-10-05T02:14:23.729Z,12.60
2022-10-05T02:16:55.584Z,19.33
2022-10-05T02:19:34.143Z,14.57
2022-10-05T02:22:07.260Z,13.60
2022-10-05T02:24:38.861Z,15.90
2022-10-05T02:27:12.256Z,15.37
2022-10-05T02:29:46.560Z,16.70
2022-10-05T02:32:21.287Z,14.53
2022-10-05T02:34:49.881Z,13.37
2022-10-05T02:37:29.766Z,17.83
2022-10-05T02:40:10.985Z,18.37
2022-10-05T02:42:48.770Z,14.63
2022-10-05T02:45:24.796Z,18.50
2022-10-05T02:48:04.191Z,17.00
2022-10-05T02:50:40.352Z,15.03
2022-10-05T02:53:21.654Z,14.33
2022-10-05T02:55:56.535Z,16.73
2022-10-05T02:58:28.022Z,18.63
2022-10-05T03:01:01.180Z,20.30
2022-10-05T03:03:37.181Z,26.57
2022-10-05T03:06:12.525Z,20.30
2022-10-05T03:08:45.584Z,15.67
2022-10-05T03:11:23.545Z,24.27
2022-10-05T03:13:58.552Z,21.40
2022-10-05T03:16:39.287Z,27.63
2022-10-05T03:19:20.915Z,26.03
2022-10-05T03:21:58.646Z,27.40
2022-10-05T03:24:51.707Z,21.73
2022-10-05T03:27:34.654Z,21.33
2022-10-05T03:30:06.993Z,20.90
2022-10-05T03:32:48.093Z,18.17
2022-10-05T03:35:23.498Z,13.40
2022-10-05T03:37:58.651Z,16.70
2022-10-05T03:40:32.970Z,17.63
2022-10-05T03:43:11.007Z,14.30
2022-10-05T03:45:48.252Z,13.13
2022-10-05T03:48:20.615Z,11.63
2022-10-05T03:51:06.373Z,11.43
2022-10-05T03:53:45.346Z,12.10
2022-10-05T03:56:17.889Z,13.53
2022-10-05T03:58:51.768Z,12.47
2022-10-05T04:01:24.574Z,13.20
2022-10-05T04:03:58.708Z,15.53
2022-10-05T04:06:34.212Z,12.63
2022-10-05T04:09:10.823Z,11.63
2022-10-05T04:11:44.147Z,14.20
2022-10-05T04:14:16.607Z,13.93
2022-10-05T04:16:49.009Z,18.00
2022-10-05T04:19:26.970Z,18.17
2022-10-05T04:22:02.914Z,17.17
2022-10-05T04:24:38.785Z,15.07
2022-10-05T04:27:14.362Z,13.60
2022-10-05T04:29:46.968Z,12.13
2022-10-05T04:32:36.525Z,14.83
2022-10-05T04:35:29.912Z,12.57
2022-10-05T04:38:13.296Z,16.00
2022-10-05T04:40:59.584Z,18.30
2022-10-05T04:43:38.130Z,20.37
2022-10-05T04:46:24.738Z,16.57
2022-10-05T04:49:11.246Z,11.53
2022-10-05T04:51:50.900Z,13.20
2022-10-05T04:54:27.899Z,15.27
2022-10-05T04:56:59.470Z,13.67
2022-10-05T04:59:49.283Z,14.50
2022-10-05T05:02:27.941Z,15.00
2022-10-05T05:05:17.976Z,16.80
2022-10-05T05:07:53.301Z,17.87
2022-10-05T05:11:00.312Z,17.10
2022-10-05T05:13:56.466Z,18.87
2022-10-05T05:16:33.420Z,20.10
2022-10-05T05:19:34.780Z,22.43
2022-10-05T05:22:08.060Z,20.93
2022-10-05T05:24:44.799Z,21.60
2022-10-05T05:27:30.911Z,30.87
2022-10-05T05:30:05.165Z,24.13
2022-10-05T05:32:45.066Z,24.70
2022-10-05T05:35:32.158Z,23.60
2022-10-05T05:38:10.226Z,29.17
2022-10-05T05:40:52.617Z,28.30
2022-10-05T05:43:27.471Z,30.70
2022-10-05T05:46:01.435Z,39.43
2022-10-05T05:48:37.736Z,28.33
2022-10-05T05:51:12.233Z,34.27
2022-10-05T05:53:45.546Z,35.00
2022-10-05T05:56:18.478Z,35.43
2022-10-05T05:58:54.802Z,31.20
2022-10-05T06:01:33.235Z,33.70
2022-10-05T06:04:07.452Z,34.03
2022-10-05T06:06:41.353Z,37.87
2022-10-05T06:09:20.512Z,33.73
2022-10-05T06:12:00.581Z,37.97
2022-10-05T06:14:35.266Z,35.73
2022-10-05T06:17:11.365Z,37.73
2022-10-05T06:19:43.917Z,35.00
2022-10-05T06:22:22.507Z,34.90
2022-10-05T06:25:02.087Z,33.93
2022-10-05T06:27:38.994Z,32.97
2022-10-05T06:30:13.649Z,40.07
2022-10-05T06:32:58.857Z,38.47
2022-10-05T06:35:41.302Z,41.67
2022-10-05T06:38:49.417Z,37.03
2022-10-05T06:41:27.398Z,41.43
2022-10-05T06:43:59.164Z,40.57
2022-10-05T06:46:33.197Z,35.93
2022-10-05T06:49:19.367Z,33.50
2022-10-05T06:51:54.105Z,32.43
2022-10-05T06:54:47.829Z,39.63
2022-10-05T06:57:33.041Z,40.07
2022-10-05T07:00:05.237Z,39.20
2022-10-05T07:02:44.295Z,41.07
2022-10-05T07:05:50.998Z,44.70
2022-10-05T07:08:27.132Z,41.40
2022-10-05T07:11:05.581Z,42.43
2022-10-05T07:13:51.719Z,40.43
2022-10-05T07:16:32.471Z,45.23
2022-10-05T07:19:16.655Z,43.37
2022-10-05T07:21:55.485Z,45.30
2022-10-05T07:24:31.584Z,44.00
2022-10-05T07:27:09.360Z,37.43
2022-10-05T07:29:49.593Z,42.33
2022-10-05T07:32:31.048Z,37.60
2022-10-05T07:35:09.200Z,36.20
2022-10-05T07:37:57.074Z,35.17
2022-10-05T07:40:31.096Z,32.50
2022-10-05T07:43:10.794Z,28.17
2022-10-05T07:45:45.648Z,37.17
2022-10-05T07:48:19.978Z,31.00
2022-10-05T07:50:59.835Z,30.63
2022-10-05T07:53:34.625Z,30.20
2022-10-05T07:56:10.022Z,32.23
2022-10-05T07:58:44.748Z,29.43
2022-10-05T08:01:19.247Z,36.37
2022-10-05T08:03:55.240Z,38.87
2022-10-05T08:06:47.028Z,32.43
2022-10-05T08:09:31.590Z,37.47
2022-10-05T08:12:08.717Z,45.73
2022-10-05T08:14:45.635Z,38.00
2022-10-05T08:17:25.406Z,32.33
2022-10-05T08:20:02.163Z,40.77
2022-10-05T08:22:40.271Z,38.93
2022-10-05T08:25:19.827Z,36.90
2022-10-05T08:27:53.342Z,36.20
2022-10-05T08:30:40.651Z,40.57
2022-10-05T08:33:14.041Z,37.83
2022-10-05T08:35:44.652Z,39.97
2022-10-05T08:38:17.162Z,37.50
2022-10-05T08:41:26.840Z,38.10
2022-10-05T08:44:25.050Z,36.73
2022-10-05T08:47:20.828Z,33.53
2022-10-05T08:50:12.663Z,31.90
2022-10-05T08:53:00.190Z,29.27
2022-10-05T08:55:44.507Z,29.73
2022-10-05T08:58:43.811Z,26.77
2022-10-05T09:01:22.002Z,26.43
2022-10-05T09:04:33.616Z,23.27
2022-10-05T09:07:22.101Z,26.57
2022-10-05T09:10:11.041Z,24.70
2022-10-05T09:13:16.297Z,22.13
2022-10-05T09:16:11.385Z,24.57
2022-10-05T09:19:15.044Z,21.27
2022-10-05T09:21:45.380Z,21.27
2022-10-05T09:24:38.068Z,23.80
2022-10-05T09:27:14.543Z,31.30
2022-10-05T09:30:15.275Z,28.67
2022-10-05T09:33:23.768Z,30.50
2022-10-05T09:36:23.889Z,30.17
2022-10-05T09:39:33.785Z,31.70
2022-10-05T09:42:41.324Z,27.13
2022-10-05T09:45:48.580Z,29.53
2022-10-05T09:48:56.374Z,27.83
2022-10-05T09:51:56.565Z,32.23
2022-10-05T09:55:15.179Z,35.60
2022-10-05T09:58:31.878Z,26.37
2022-10-05T10:01:33.500Z,24.27
2022-10-05T10:04:26.093Z,28.60
2022-10-05T10:07:26.128Z,26.00
2022-10-05T10:10:42.104Z,27.43
2022-10-05T10:13:36.120Z,24.03
2022-10-05T10:16:16.883Z,20.87
2022-10-05T10:19:11.008Z,22.97
2022-10-05T10:22:25.639Z,20.33
2022-10-05T10:25:19.376Z,22.17
2022-10-05T10:28:09.164Z,26.57
2022-10-05T10:31:04.265Z,22.33
2022-10-05T10:33:59.823Z,26.70
2022-10-05T10:36:41.678Z,17.27
2022-10-05T10:39:24.443Z,18.33
2022-10-05T10:42:26.326Z,16.73
2022-10-05T10:45:19.446Z,17.87
2022-10-05T10:48:06.404Z,18.17
2022-10-05T10:51:11.476Z,15.30
2022-10-05T10:54:12.894Z,14.10
2022-10-05T10:57:16.685Z,15.23
2022-10-05T11:00:28.220Z,14.37
2022-10-05T11:03:14.114Z,13.83
2022-10-05T11:06:18.168Z,16.60
2022-10-05T11:09:23.090Z,17.03
2022-10-05T11:12:33.654Z,16.67
2022-10-05T11:15:39.158Z,13.80
2022-10-05T11:18:17.701Z,15.53
2022-10-05T11:21:24.245Z,15.57
2022-10-05T11:24:38.958Z,14.10
2022-10-05T11:27:51.927Z,11.57
2022-10-05T11:30:41.062Z,13.10
2022-10-05T11:33:53.235Z,9.90
2022-10-05T11:36:55.431Z,8.13
2022-10-05T11:39:41.901Z,8.30
2022-10-05T11:42:40.061Z,7.07
2022-10-05T11:45:25.157Z,4.33
2022-10-05T11:48:35.182Z,4.00
2022-10-05T11:51:31.101Z,6.43
2022-10-05T11:54:17.711Z,5.53
2022-10-05T11:56:53.807Z,3.33
2022-10-05T11:59:30.223Z,5.13
2022-10-05T12:02:08.137Z,3.10
2022-10-05T12:04:52.306Z,4.77
2022-10-05T12:07:28.627Z,3.33
2022-10-05T12:10:20.082Z,4.23
2022-10-05T12:13:01.512Z,2.80
2022-10-05T12:15:38.364Z,4.17
2022-10-05T12:18:13.481Z,2.77
2022-10-05T12:20:50.914Z,3.20
2022-10-05T12:23:25.335Z,3.87
2022-10-05T12:26:00.254Z,3.87
2022-10-05T12:28:35.559Z,4.00
2022-10-05T12:31:12.533Z,3.53
2022-10-05T12:33:51.954Z,8.37
2022-10-05T12:36:26.338Z,5.00
2022-10-05T12:39:05.168Z,5.63
2022-10-05T12:41:40.370Z,5.33
2022-10-05T12:44:20.231Z,5.37
2022-10-05T12:47:00.414Z,4.73
2022-10-05T12:49:56.127Z,5.20
2022-10-05T12:52:40.477Z,5.30
2022-10-05T12:55:20.243Z,8.30
2022-10-05T12:57:59.632Z,5.77
2022-10-05T13:00:29.595Z,4.00
2022-10-05T13:03:03.539Z,4.27
2022-10-05T13:05:35.545Z,3.63
2022-10-05T13:08:23.720Z,3.77
2022-10-05T13:11:01.837Z,4.07
2022-10-05T13:13:42.768Z,4.63
2022-10-05T13:16:21.183Z,6.87
2022-10-05T13:19:00.098Z,6.47
2022-10-05T13:21:35.556Z,4.47
2022-10-05T13:24:10.850Z,4.97
2022-10-05T13:26:45.173Z,7.73
2022-10-05T13:29:23.215Z,8.23
2022-10-05T13:31:55.255Z,3.87
2022-10-05T13:34:32.807Z,5.00
2022-10-05T13:37:07.763Z,5.83
2022-10-05T13:39:51.765Z,3.00
2022-10-05T13:42:29.873Z,5.17
2022-10-05T13:45:01.038Z,3.47
2022-10-05T13:47:35.544Z,9.90
2022-10-05T13:50:08.462Z,4.60
2022-10-05T13:52:45.767Z,7.07
2022-10-05T13:55:23.035Z,4.37
2022-10-05T13:58:03.713Z,4.57
2022-10-05T14:00:36.761Z,6.70
2022-10-05T14:03:23.948Z,4.00
2022-10-05T14:05:56.400Z,4.97
2022-10-05T14:08:32.577Z,4.23
2022-10-05T14:11:02.960Z,3.67
2022-10-05T14:13:46.378Z,5.67
2022-10-05T14:16:23.629Z,7.67
2022-10-05T14:18:55.231Z,4.73
2022-10-05T14:21:25.005Z,6.03
2022-10-05T14:23:54.106Z,4.03
2022-10-05T14:26:33.860Z,7.23
2022-10-05T14:29:19.181Z,5.03
2022-10-05T14:31:58.256Z,5.63
2022-10-05T14:34:34.718Z,4.13
2022-10-05T14:37:09.996Z,7.13
2022-10-05T14:39:42.596Z,4.10
2022-10-05T14:42:16.485Z,4.40
2022-10-05T14:44:46.754Z,5.83
2022-10-05T14:47:23.571Z,5.20
2022-10-05T14:50:10.697Z,4.80
2022-10-05T14:52:41.234Z,6.97
2022-10-05T14:55:29.216Z,3.03
2022-10-05T14:58:09.277Z,3.77
2022-10-05T15:00:48.998Z,5.20
2022-10-05T15:03:31.211Z,4.40
2022-10-05T15:06:01.583Z,3.10
2022-10-05T15:08:48.056Z,6.40
2022-10-05T15:11:26.424Z,3.97
2022-10-05T15:13:56.138Z,3.63
2022-10-05T15:16:31.031Z,5.87
2022-10-05T15:19:08.258Z,2.93
2022-10-05T15:21:45.000Z,4.87
2022-10-05T15:24:20.087Z,5.13
2022-10-05T15:26:51.387Z,3.50
2022-10-05T15:29:47.318Z,4.00
2022-10-05T15:32:33.502Z,3.13
2022-10-05T15:35:20.270Z,5.40
2022-10-05T15:37:53.433Z,3.37
2022-10-05T15:40:27.974Z,5.27
2022-10-05T15:43:02.988Z,4.17
2022-10-05T15:45:34.075Z,2.73
2022-10-05T15:48:14.881Z,2.90
2022-10-05T15:50:50.970Z,5.23
2022-10-05T15:53:23.332Z,3.43
2022-10-05T15:55:56.345Z,4.27
2022-10-05T15:58:48.250Z,6.47
2022-10-05T16:01:25.730Z,3.20
2022-10-05T16:04:02.773Z,3.07
2022-10-05T16:06:56.628Z,3.20
2022-10-05T16:09:38.389Z,4.20
2022-10-05T16:12:19.067Z,2.60
2022-10-05T16:14:57.730Z,2.70
2022-10-05T16:17:41.609Z,5.40
2022-10-05T16:20:32.123Z,2.87
2022-10-05T16:23:06.788Z,2.53
2022-10-05T16:25:48.166Z,3.53
2022-10-05T16:28:36.680Z,3.07
2022-10-05T16:31:18.785Z,3.57
2022-10-05T16:33:59.626Z,2.67
2022-10-05T16:36:40.082Z,4.67
2022-10-05T16:39:14.395Z,4.73
2022-10-05T16:41:57.557Z,4.40
2022-10-05T16:44:36.759Z,4.13
2022-10-05T16:47:35.961Z,4.33
2022-10-05T16:50:23.193Z,3.33
2022-10-05T16:52:58.694Z,5.77
2022-10-05T16:55:34.227Z,3.33
2022-10-05T16:58:09.485Z,4.43
2022-10-05T17:00:51.906Z,7.47
2022-10-05T17:04:44.636Z,7.87
2022-10-05T17:07:34.603Z,6.43
2022-10-05T17:10:41.096Z,6.43
2022-10-05T17:13:24.467Z,6.13
2022-10-05T17:16:08.050Z,7.53
2022-10-05T17:19:10.943Z,5.50
2022-10-05T17:21:44.503Z,9.43
2022-10-05T17:24:34.375Z,6.13
2022-10-05T17:27:19.455Z,9.10
2022-10-05T17:29:51.728Z,6.40
2022-10-05T17:32:35.988Z,8.53
2022-10-05T17:35:20.335Z,9.30
2022-10-05T17:38:14.481Z,7.93
2022-10-05T17:41:03.121Z,10.47
2022-10-05T17:43:34.913Z,7.13
2022-10-05T17:46:06.974Z,9.73
2022-10-05T17:48:45.107Z,6.47
2022-10-05T17:51:52.612Z,8.93
2022-10-05T17:54:40.169Z,6.67
2022-10-05T17:57:23.824Z,9.97
2022-10-05T18:00:02.105Z,7.23
2022-10-05T18:02:43.667Z,8.77
2022-10-05T18:05:27.769Z,5.10
2022-10-05T18:08:37.511Z,8.87
2022-10-05T18:11:17.259Z,8.60
2022-10-05T18:13:50.127Z,6.93
2022-10-05T18:16:53.219Z,9.90
2022-10-05T18:19:24.299Z,7.17
2022-10-05T18:22:04.518Z,8.33
2022-10-05T18:24:56.135Z,9.43
2022-10-05T18:27:44.978Z,6.10
2022-10-05T18:30:21.508Z,6.70
2022-10-05T18:33:17.094Z,6.67
2022-10-05T18:36:01.451Z,7.10
2022-10-05T18:38:42.368Z,8.53
2022-10-05T18:41:21.141Z,8.00
2022-10-05T18:43:59.319Z,6.23
2022-10-05T18:46:39.861Z,6.70
2022-10-05T18:49:25.893Z,5.70
2022-10-05T18:52:04.929Z,9.00
2022-10-05T18:54:45.161Z,7.33
2022-10-05T18:57:39.428Z,6.70
2022-10-05T19:00:14.721Z,8.90
2022-10-05T19:02:49.397Z,15.37
2022-10-05T19:05:48.348Z,19.50
2022-10-05T19:08:35.086Z,23.03
2022-10-05T19:11:12.406Z,31.80
2022-10-05T19:13:47.973Z,27.53
2022-10-05T19:16:29.926Z,25.10
2022-10-05T19:19:29.486Z,21.70
2022-10-05T19:22:05.096Z,14.40
2022-10-05T19:24:50.441Z,10.10
2022-10-05T19:27:28.213Z,10.17
2022-10-05T19:30:15.026Z,10.03
2022-10-05T19:32:57.467Z,8.40
2022-10-05T19:35:33.323Z,8.27
2022-10-05T19:40:58.153Z,11.17
2022-10-05T19:43:44.594Z,8.10
2022-10-05T19:46:20.634Z,11.37
2022-10-05T19:48:50.786Z,8.03
2022-10-05T19:51:50.456Z,11.57
2022-10-05T19:54:29.681Z,10.50
2022-10-05T19:57:01.983Z,7.93
2022-10-05T19:59:31.724Z,8.13
2022-10-05T20:02:00.380Z,6.77
2022-10-05T20:04:36.866Z,9.33
2022-10-05T20:07:05.737Z,7.20
2022-10-05T20:09:57.978Z,7.87
2022-10-05T20:12:51.910Z,6.83
2022-10-05T20:15:39.272Z,6.57
2022-10-05T20:18:50.298Z,7.13
2022-10-05T20:21:42.416Z,6.43
2022-10-05T20:24:12.585Z,8.50
2022-10-05T20:27:04.070Z,7.80
2022-10-05T20:29:36.375Z,9.03
2022-10-05T20:32:08.220Z,9.30
2022-10-05T20:34:41.801Z,8.63
2022-10-05T20:37:10.485Z,7.40
2022-10-05T20:39:39.054Z,8.33
2022-10-05T20:42:09.547Z,9.70
2022-10-05T20:44:41.929Z,11.17
2022-10-05T20:47:13.357Z,7.00
2022-10-05T20:49:42.004Z,8.13
2022-10-05T20:52:15.080Z,8.33
2022-10-05T20:54:53.844Z,10.03
2022-10-05T20:57:27.639Z,13.63
2022-10-05T20:59:57.126Z,7.50
2022-10-05T21:02:25.122Z,10.57
2022-10-05T21:04:58.221Z,9.10
2022-10-05T21:07:26.591Z,10.23
2022-10-05T21:09:55.729Z,8.20
2022-10-05T21:12:23.934Z,6.93
2022-10-05T21:14:54.091Z,8.10
2022-10-05T21:17:27.087Z,6.60
2022-10-05T21:19:59.990Z,7.07
2022-10-05T21:22:28.127Z,7.93
2022-10-05T21:24:59.412Z,6.40
2022-10-05T21:27:27.436Z,7.37
2022-10-05T21:29:55.354Z,6.73
2022-10-05T21:32:24.767Z,8.17
2022-10-05T21:34:52.758Z,8.47
2022-10-05T21:37:20.826Z,8.50
2022-10-05T21:39:52.288Z,7.87
2022-10-05T21:42:23.525Z,8.97
2022-10-05T21:44:51.807Z,7.73
2022-10-05T21:47:24.115Z,8.67
2022-10-05T21:49:55.431Z,7.63
2022-10-05T21:52:26.366Z,8.13
2022-10-05T21:54:54.450Z,6.73
2022-10-05T21:57:22.774Z,7.67
2022-10-05T21:59:52.749Z,8.13
2022-10-05T22:02:23.826Z,9.50
2022-10-05T22:04:53.479Z,9.37
2022-10-05T22:07:21.502Z,7.30
2022-10-05T22:09:49.549Z,8.07
2022-10-05T22:12:19.773Z,5.67
2022-10-05T22:14:51.001Z,7.80
2022-10-05T22:17:24.894Z,11.33
2022-10-05T22:20:00.782Z,8.37
2022-10-05T22:22:34.185Z,6.87
2022-10-05T22:25:05.623Z,9.23
2022-10-05T22:27:36.099Z,6.77
2022-10-05T22:30:06.951Z,6.60
2022-10-05T22:32:36.214Z,6.13
2022-10-05T22:35:11.228Z,6.50
2022-10-05T22:37:39.825Z,7.17
2022-10-05T22:40:11.130Z,8.40
2022-10-05T22:42:40.523Z,6.47
2022-10-05T22:45:11.107Z,7.37
2022-10-05T22:47:41.441Z,6.97
2022-10-05T22:50:12.270Z,6.67
2022-10-05T22:52:41.398Z,7.93
2022-10-05T22:55:09.968Z,9.53
2022-10-05T22:57:41.133Z,7.47
2022-10-05T23:00:12.524Z,7.10
2022-10-05T23:02:43.536Z,6.97
2022-10-05T23:05:14.672Z,9.40
2022-10-05T23:07:47.575Z,6.77
2022-10-05T23:10:17.621Z,6.67
2022-10-05T23:12:46.379Z,7.00
2022-10-05T23:15:16.058Z,10.03
2022-10-05T23:17:45.355Z,6.23
2022-10-05T23:20:16.521Z,7.33
2022-10-05T23:22:48.078Z,7.50
2022-10-05T23:25:19.338Z,9.70
2022-10-05T23:27:47.368Z,5.77
2022-10-05T23:30:18.397Z,6.20
2022-10-05T23:32:48.968Z,6.07
2022-10-05T23:35:18.957Z,6.40
2022-10-05T23:37:48.847Z,6.07
2022-10-05T23:40:16.973Z,6.20
2022-10-05T23:42:52.565Z,9.00
2022-10-05T23:45:20.631Z,10.83
2022-10-05T23:47:52.857Z,6.33
2022-10-05T23:50:24.859Z,6.70
2022-10-05T23:52:57.622Z,6.87
2022-10-05T23:55:26.894Z,6.60
2022-10-05T23:57:57.874Z,10.70
